Flight Track Log - Related Links

Times and Time Zones

All times are in EDT time to prevent confusion due to time zone crossing. See the TFF605 flight status page for this flight to view local times or setup timezone preferences in your user account.

Time Position Orientation Groundspeed Altitude Reporting Facility
EDT Latitude Longitude Course Direction KTS MPH feet Rate Location/Type
Sat 09:42:44 PM 41.0333 -73.7000 236° Southwest 177 204 1,300  Level New York TRACON
Sat 09:43:44 PM 41.0167 -73.7333 236° Southwest 206 237 3,500 2,050 Climbing New York TRACON
Sat 09:44:44 PM 41.0667 -73.8000 315° West 259 298 5,400 2,526 Climbing New York TRACON
Sat 09:45:38 PM 41.1333 -73.8167 349° North 292 336 8,300 2,185 Climbing New York TRACON
Sat 09:47:48 PM 41.1731 -73.6175 75° East 295 339 12,100 1,484 Climbing Boston Center
Sat 09:48:48 PM 41.2117 -73.4886 68° East 321 369 13,000 1,250 Climbing Boston Center
Sat 09:49:48 PM 41.2669 -73.3736 57° Northeast 364 419 14,600 1,850 Climbing Boston Center
Sat 09:50:48 PM 41.3347 -73.2392 56° Northeast 419 482 16,700 2,050 Climbing Boston Center
Sat 09:51:48 PM 41.4064 -73.0850 58° Northeast 437 503 18,700 1,750 Climbing Boston Center
Sat 09:52:48 PM 41.4656 -72.9497 60° Northeast 450 518 20,200 1,500 Climbing Boston Center
Sat 09:53:48 PM 41.5286 -72.7950 61° Northeast 462 532 21,700 1,591 Climbing Boston Center
Sat 09:55:00 PM 41.6083 -72.5844 63° Northeast 472 543 23,700 1,409 Climbing Boston Center
Sat 09:56:00 PM 41.6606 -72.4511 62° Northeast 482 555 24,800 1,636 Climbing Boston Center
Sat 09:57:12 PM 41.7519 -72.2119 63° Northeast 500 575 27,300 2,091 Climbing Boston Center
Sat 09:58:12 PM 41.8183 -72.0361 63° Northeast 506 582 29,400 1,350 Climbing Boston Center
Sat 09:59:12 PM 41.8819 -71.8656 63° Northeast 511 588 30,000 1,050 Climbing Boston Center
Sat 10:00:12 PM 41.9497 -71.6864 63° Northeast 516 594 31,500 1,200 Climbing Boston Center
Sat 10:01:12 PM 42.0194 -71.5094 62° Northeast 521 600 32,400 1,150 Climbing Boston Center
Sat 10:02:12 PM 42.0864 -71.3267 64° Northeast 532 612 33,800 1,450 Climbing Boston Center
Sat 10:03:12 PM 42.1553 -71.1433 63° Northeast 537 618 35,300 1,550 Climbing Boston Center
Sat 10:04:12 PM 42.2239 -70.9597 63° Northeast 537 618 36,900 1,400 Climbing Boston Center
Sat 10:05:12 PM 42.2839 -70.7731 66° East 537 618 38,100 1,000 Climbing Boston Center
Sat 10:06:12 PM 42.3500 -70.5917 64° Northeast 532 612 38,900 450 Climbing Boston Center
Sat 10:07:12 PM 42.4178 -70.4094 63° Northeast 532 612 39,000 50 Climbing Boston Center
Sat 10:08:12 PM 42.4850 -70.2214 64° Northeast 532 612 39,000  Level Boston Center
Sat 10:09:12 PM 42.5497 -70.0275 66° East 544 626 39,000 200 Level Boston Center
Sat 10:10:12 PM 42.6167 -69.8386 64° Northeast 549 632 39,400 400 Climbing Boston Center
Sat 10:11:12 PM 42.6869 -69.6464 64° Northeast 555 639 39,800 400 Climbing Boston Center
Sat 10:12:12 PM 42.7511 -69.4597 65° Northeast 550 633 40,200 350 Climbing Boston Center
Sat 10:13:12 PM 42.8111 -69.2869 65° Northeast 555 639 40,500 200 Climbing Boston Center
Sat 10:14:12 PM 42.8764 -69.0967 65° Northeast 555 639 40,600 150 Climbing Boston Center
Sat 10:15:12 PM 42.9417 -68.9058 65° Northeast 550 633 40,800 150 Climbing Boston Center
Sat 10:16:12 PM 43.0064 -68.7175 65° Northeast 550 633 40,900 100 Climbing Boston Center
Sat 10:17:12 PM 43.0747 -68.5114 66° East 543 625 41,000 50 Climbing Boston Center
Sat 10:18:12 PM 43.1389 -68.3222 65° Northeast 543 625 41,000  Level Boston Center
Sat 10:19:12 PM 43.2025 -68.1269 66° East 543 625 41,000  Level Boston Center
Sat 10:20:12 PM 43.2661 -67.9369 65° Northeast 548 631 41,000  Level Boston Center
Sat 10:21:12 PM 43.3269 -67.7411 67° East 548 631 41,000  Level Boston Center
Sat 10:22:24 PM 43.3900 -67.5533 65° Northeast 548 631 41,000  Level Boston Center
Sat 10:23:24 PM 43.4633 -67.3214 66° East 548 631 41,000  Level Boston Center
Sat 10:24:24 PM 43.5253 -67.1269 66° East 553 636 41,000  Level Boston Center
Sat 10:25:20 PM 43.5667 -66.9500 72° East 550 633 41,000  Level Moncton Center
Sat 10:26:20 PM 43.6667 -66.7833 50° Northeast 550 633 41,000  Level Moncton Center
Sat 10:27:20 PM 43.7667 -66.6000 53° Northeast 560 644 41,000  Level Moncton Center
Sat 10:28:20 PM 43.8500 -66.4333 55° Northeast 560 644 41,000  Level Moncton Center
Sat 10:29:20 PM 43.9333 -66.2500 58° Northeast 560 644 41,000  Level Moncton Center
Sat 10:30:20 PM 44.0167 -66.0667 58° Northeast 560 644 41,000  Level Moncton Center
Sat 10:31:20 PM 44.1333 -65.9167 43° Northeast 550 633 41,000  Level Moncton Center
Sat 10:32:20 PM 44.2167 -65.7333 58° Northeast 550 633 41,000  Level Moncton Center
Sat 10:33:20 PM 44.3000 -65.5333 60° Northeast 550 633 41,000  Level Moncton Center
Sat 10:34:20 PM 44.3833 -65.3833 52° Northeast 550 633 41,000  Level Moncton Center
Sat 10:35:20 PM 44.4667 -65.2000 57° Northeast 550 633 41,000  Level Moncton Center
Sat 10:36:20 PM 44.5500 -65.0333 55° Northeast 550 633 41,000  Level Moncton Center
Sat 10:37:20 PM 44.6333 -64.8500 57° Northeast 550 633 41,000  Level Moncton Center
Sat 10:38:20 PM 44.7167 -64.6833 55° Northeast 550 633 41,000  Level Moncton Center
Sat 10:39:20 PM 44.8000 -64.5167 55° Northeast 550 633 41,000  Level Moncton Center
Sat 10:40:20 PM 44.9000 -64.3333 52° Northeast 550 633 41,000  Level Moncton Center
Sat 10:41:20 PM 44.9833 -64.1333 59° Northeast 550 633 41,000  Level Moncton Center
Sat 10:42:20 PM 45.0667 -63.9667 55° Northeast 550 633 41,000  Level Moncton Center
Sat 10:43:20 PM 45.1500 -63.7833 57° Northeast 550 633 41,000  Level Moncton Center
Sat 10:44:20 PM 45.2333 -63.5833 59° Northeast 550 633 41,000  Level Moncton Center
Sat 10:45:20 PM 45.3333 -63.4000 52° Northeast 550 633 41,000  Level Moncton Center
Sat 10:46:20 PM 45.4167 -63.2333 54° Northeast 550 633 41,000  Level Moncton Center
Sat 10:47:20 PM 45.5000 -63.0667 54° Northeast 540 621 41,000  Level Moncton Center
Sat 10:48:20 PM 45.5833 -62.8667 59° Northeast 550 633 41,000  Level Moncton Center
Sat 10:49:20 PM 45.6667 -62.7000 54° Northeast 550 633 41,000  Level Moncton Center
Sat 10:50:20 PM 45.7500 -62.5000 59° Northeast 550 633 41,000  Level Moncton Center
Sat 10:51:20 PM 45.8167 -62.3000 64° Northeast 550 633 41,000  Level Moncton Center
Sat 10:52:20 PM 45.9167 -62.1333 49° Northeast 550 633 41,000  Level Moncton Center
Sat 10:53:20 PM 46.0000 -61.9333 59° Northeast 550 633 41,000  Level Moncton Center
Sat 10:54:20 PM 46.0833 -61.7667 54° Northeast 540 621 41,000  Level Moncton Center
Sat 10:55:20 PM 46.1500 -61.5667 64° Northeast 540 621 41,000  Level Moncton Center
Sat 10:56:20 PM 46.2333 -61.4000 54° Northeast 540 621 41,000  Level Moncton Center
Sat 10:57:20 PM 46.3167 -61.2000 59° Northeast 550 633 41,000  Level Moncton Center
Sat 10:58:20 PM 46.4000 -61.0167 57° Northeast 550 633 41,000  Level Moncton Center
Sat 10:59:20 PM 46.4833 -60.8167 59° Northeast 550 633 41,000  Level Moncton Center
Sat 11:00:20 PM 46.5667 -60.6500 54° Northeast 550 633 41,000  Level Moncton Center
Sat 11:01:20 PM 46.6500 -60.4667 56° Northeast 550 633 41,000  Level Moncton Center
Sat 11:02:38 PM 46.7333 -60.2167 64° Northeast 540 621 41,000  Level Gander Center
Sat 11:03:38 PM 46.8167 -60.0167 59° Northeast 550 633 41,000  Level Gander Center
Sat 11:04:20 PM 46.8667 -59.8833 61° Northeast 550 633 41,000  Level Moncton Center
Sat 11:05:20 PM 46.9500 -59.6833 59° Northeast 550 633 41,000  Level Moncton Center
Sat 11:06:38 PM 47.0667 -59.4500 54° Northeast 540 621 41,000  Level Gander Center
Sat 11:07:38 PM 47.1500 -59.2500 58° Northeast 540 621 41,000  Level Gander Center
Sat 11:08:38 PM 47.2000 -59.0667 68° East 550 633 41,000  Level Gander Center
Sat 11:09:38 PM 47.2833 -58.8667 58° Northeast 540 621 41,000  Level Gander Center
Sat 11:10:38 PM 47.3667 -58.6667 58° Northeast 540 621 41,000  Level Gander Center
Sat 11:11:38 PM 47.4333 -58.5000 59° Northeast 540 621 41,000  Level Gander Center
Sat 11:12:20 PM 47.4833 -58.3500 64° Northeast 540 621 41,000  Level Moncton Center
Sat 11:13:20 PM 47.5667 -58.1667 56° Northeast 530 610 41,000  Level Moncton Center
Sat 11:14:38 PM 47.6667 -57.9167 59° Northeast 540 621 41,000  Level Gander Center
Sat 11:15:38 PM 47.7333 -57.7333 62° Northeast 540 621 41,000  Level Gander Center
Sat 11:16:20 PM 47.7833 -57.5667 66° East 540 621 41,000  Level Moncton Center
Sat 11:17:38 PM 47.8833 -57.3167 59° Northeast 540 621 41,000  Level Gander Center
Sat 11:18:38 PM 47.9333 -57.1167 69° East 540 621 41,000  Level Gander Center
Sat 11:19:38 PM 48.0167 -56.9167 58° Northeast 540 621 41,000  Level Gander Center
Sat 11:20:38 PM 48.0667 -56.7333 68° East 530 610 41,000  Level Gander Center
Sat 11:21:38 PM 48.1333 -56.5167 65° Northeast 530 610 41,000  Level Gander Center
Sat 11:22:38 PM 48.2000 -56.3167 63° Northeast 530 610 41,000  Level Gander Center
Sat 11:23:38 PM 48.2667 -56.1167 63° Northeast 540 621 41,000  Level Gander Center
Sat 11:24:38 PM 48.3333 -55.9000 65° Northeast 530 610 41,000  Level Gander Center
Sat 11:25:38 PM 48.4000 -55.7167 61° Northeast 530 610 41,000  Level Gander Center
Sat 11:26:38 PM 48.4500 -55.5167 69° East 530 610 41,000  Level Gander Center
Sat 11:27:38 PM 48.5000 -55.3000 71° East 530 610 41,000  Level Gander Center
Sat 11:28:38 PM 48.5833 -55.1167 55° Northeast 530 610 41,000  Level Gander Center
Sat 11:29:38 PM 48.6333 -54.9000 71° East 530 610 41,000  Level Gander Center
Sat 11:30:38 PM 48.6833 -54.7000 69° East 530 610 41,000  Level Gander Center
Sat 11:31:38 PM 48.7667 -54.4833 60° Northeast 530 610 41,000  Level Gander Center
Sat 11:32:38 PM 48.8167 -54.2667 71° East 540 621 41,000  Level Gander Center
Sat 11:33:38 PM 48.8833 -54.0500 65° Northeast 540 621 41,000  Level Gander Center
Sat 11:34:39 PM 48.9333 -53.8667 67° East 530 610 41,000  Level Gander Center
Sat 11:35:39 PM 49.0000 -53.6500 65° Northeast 530 610 41,000  Level Gander Center
Sat 11:36:39 PM 49.0667 -53.4667 61° Northeast 530 610 41,000  Level Gander Center
Sat 11:37:39 PM 49.1167 -53.2333 72° East 530 610 41,000  Level Gander Center
Sat 11:38:39 PM 49.1667 -53.0333 69° East 540 621 41,000  Level Gander Center
Sat 11:39:39 PM 49.2333 -52.8167 65° Northeast 530 610 41,000  Level Gander Center
Sat 11:40:39 PM 49.2833 -52.6333 67° East 530 610 41,000  Level Gander Center
Sat 11:41:39 PM 49.3500 -52.3833 68° East 530 610 41,000  Level Gander Center
Sat 11:42:39 PM 49.4000 -52.2000 67° East 530 610 41,000  Level Gander Center
Sat 11:43:39 PM 49.4500 -51.9833 70° East 530 610 41,000  Level Gander Center
Sat 11:44:39 PM 49.5167 -51.7833 63° Northeast 530 610 41,000  Level Gander Center
Sat 11:45:39 PM 49.5667 -51.5667 70° East 530 610 41,000  Level Gander Center
Sat 11:46:39 PM 49.6167 -51.3500 70° East 530 610 41,000  Level Gander Center
Sat 11:48:00 PM 49.6903 -51.0967 66° East  Level FlightAware Approximate
Sat 11:53:32 PM 50.0000 -50.0000 77° East 526 605 41,000  Level ETMS Enhanced Traffic Management System
Sat 11:55:00 PM 50.0487 -49.6399 77° East  Level FlightAware Approximate
Sat 11:56:00 PM 50.0791 -49.4210 78° East  Level FlightAware Approximate
Sat 11:57:00 PM 50.1092 -49.2018 78° East  Level FlightAware Approximate
Sat 11:58:00 PM 50.1388 -48.9823 78° East  Level FlightAware Approximate
Sat 11:59:00 PM 50.2159 -48.4399 78° East 526 605 41,000  Level FlightAware Transoceanic
Sun 12:00:00 AM 50.2450 -48.2159 79° East 526 605 41,000  Level FlightAware Transoceanic
Sun 12:01:00 AM 50.2737 -47.9917 79° East 526 605 41,000  Level FlightAware Transoceanic
Sun 12:02:00 AM 50.3020 -47.7671 79° East 526 605 41,000  Level FlightAware Transoceanic
Sun 12:03:00 AM 50.3298 -47.5423 79° East 526 605 41,000  Level FlightAware Transoceanic
Sun 12:04:00 AM 50.3572 -47.3173 79° East 526 605 41,000  Level FlightAware Transoceanic
Sun 12:05:00 AM 50.3842 -47.0919 79° East 526 605 41,000  Level FlightAware Transoceanic
Sun 12:06:00 AM 50.4107 -46.8664 80° East 526 605 41,000  Level FlightAware Transoceanic
Sun 12:07:00 AM 50.4368 -46.6405 80° East 526 605 41,000  Level FlightAware Transoceanic
Sun 12:08:00 AM 50.4625 -46.4145 80° East 526 605 41,000  Level FlightAware Transoceanic
Sun 12:09:00 AM 50.4877 -46.1882 80° East 526 605 41,000  Level FlightAware Transoceanic
Sun 12:10:00 AM 50.5125 -45.9616 80° East 526 605 41,000  Level FlightAware Transoceanic
Sun 12:11:00 AM 50.5368 -45.7348 81° East 526 605 41,000  Level FlightAware Transoceanic
Sun 12:12:00 AM 50.5607 -45.5078 81° East 526 605 41,000  Level FlightAware Transoceanic
Sun 12:13:00 AM 50.5841 -45.2805 81° East 526 605 41,000  Level FlightAware Transoceanic
Sun 12:14:00 AM 50.6072 -45.0531 81° East 526 605 41,000  Level FlightAware Transoceanic
Sun 12:15:00 AM 50.6297 -44.8254 81° East 526 605 41,000  Level FlightAware Transoceanic
Sun 12:16:00 AM 50.6519 -44.5975 81° East 526 605 41,000  Level FlightAware Transoceanic
Sun 12:17:00 AM 50.6735 -44.3693 82° East 526 605 41,000  Level FlightAware Transoceanic
Sun 12:18:00 AM 50.6948 -44.1410 82° East 526 605 41,000  Level FlightAware Transoceanic
Sun 12:19:00 AM 50.7156 -43.9125 82° East 526 605 41,000  Level FlightAware Transoceanic
Sun 12:20:00 AM 50.7359 -43.6837 82° East 526 605 41,000  Level FlightAware Transoceanic
Sun 12:21:00 AM 50.7558 -43.4548 82° East 526 605 41,000  Level FlightAware Transoceanic
Sun 12:22:00 AM 50.7752 -43.2257 82° East 526 605 41,000  Level FlightAware Transoceanic
Sun 12:23:00 AM 50.7942 -42.9963 83° East 526 605 41,000  Level FlightAware Transoceanic
Sun 12:24:00 AM 50.8128 -42.7668 83° East 526 605 41,000  Level FlightAware Transoceanic
Sun 12:25:00 AM 50.8309 -42.5372 83° East 526 605 41,000  Level FlightAware Transoceanic
Sun 12:26:00 AM 50.8485 -42.3073 83° East 526 605 41,000  Level FlightAware Transoceanic
Sun 12:27:00 AM 50.8657 -42.0773 83° East 526 605 41,000  Level FlightAware Transoceanic
Sun 12:28:00 AM 50.8824 -41.8471 84° East 526 605 41,000  Level FlightAware Transoceanic
Sun 12:29:00 AM 50.8987 -41.6167 84° East 526 605 41,000  Level FlightAware Transoceanic
Sun 12:30:00 AM 50.9146 -41.3862 84° East 526 605 41,000  Level FlightAware Transoceanic
Sun 12:31:00 AM 50.9299 -41.1555 84° East 526 605 41,000  Level FlightAware Transoceanic
Sun 12:32:00 AM 50.9449 -40.9247 84° East 526 605 41,000  Level FlightAware Transoceanic
Sun 12:33:00 AM 50.9593 -40.6937 84° East 526 605 41,000  Level FlightAware Transoceanic
Sun 12:34:00 AM 50.9733 -40.4626 85° East 526 605 41,000  Level FlightAware Transoceanic
Sun 12:35:00 AM 50.9869 -40.2314 85° East 526 605 41,000  Level FlightAware Transoceanic
Sun 12:36:00 AM 50.9998 -40.0039 85° East  Level FlightAware Approximate
Sun 12:37:00 AM 51.0120 -39.7762 85° East  Level FlightAware Approximate
Sun 12:38:00 AM 51.0092 -39.7797 86° East  Level FlightAware Approximate
Sun 12:39:00 AM 51.0183 -39.5517 86° East  Level FlightAware Approximate
Sun 12:40:00 AM 51.0270 -39.3235 86° East  Level FlightAware Approximate
Sun 12:41:00 AM 51.0352 -39.0952 87° East  Level FlightAware Approximate
Sun 12:42:00 AM 51.0430 -38.8669 87° East  Level FlightAware Approximate
Sun 12:43:00 AM 51.0503 -38.6385 87° East  Level FlightAware Approximate
Sun 12:44:00 AM 51.0572 -38.4100 87° East  Level FlightAware Approximate
Sun 12:45:00 AM 51.0636 -38.1815 87° East  Level FlightAware Approximate
Sun 12:46:00 AM 51.0696 -37.9529 88° East  Level FlightAware Approximate
Sun 12:47:00 AM 51.0751 -37.7242 88° East  Level FlightAware Approximate
Sun 12:48:00 AM 51.0802 -37.4955 88° East  Level FlightAware Approximate
Sun 12:48:00 AM 51.0000 -40.0000 86° East 552 635 41,000  Level ETMS Enhanced Traffic Management System
Sun 12:49:00 AM 51.0849 -37.2668 88° East  Level FlightAware Approximate
Sun 12:50:00 AM 51.0891 -37.0379 88° East  Level FlightAware Approximate
Sun 12:51:00 AM 51.0928 -36.8091 88° East  Level FlightAware Approximate
Sun 12:52:00 AM 51.0961 -36.5802 89° East  Level FlightAware Approximate
Sun 12:53:00 AM 51.0990 -36.3513 89° East  Level FlightAware Approximate
Sun 12:54:00 AM 51.1052 -35.6107 90° East 552 635 41,000  Level FlightAware Transoceanic
Sun 12:55:00 AM 51.1062 -35.3664 90° East 552 635 41,000  Level FlightAware Transoceanic
Sun 12:56:00 AM 51.1067 -35.1221 90° East 552 635 41,000  Level FlightAware Transoceanic
Sun 12:57:00 AM 51.1067 -34.8779 90° East 552 635 41,000  Level FlightAware Transoceanic
Sun 12:58:00 AM 51.1062 -34.6336 90° East 552 635 41,000  Level FlightAware Transoceanic
Sun 12:59:00 AM 51.1052 -34.3893 90° East 552 635 41,000  Level FlightAware Transoceanic
Sun 01:00:00 AM 51.1037 -34.1451 91° East 552 635 41,000  Level FlightAware Transoceanic
Sun 01:01:00 AM 51.1016 -33.9008 91° East 552 635 41,000  Level FlightAware Transoceanic
Sun 01:02:00 AM 51.0991 -33.6566 91° East 552 635 41,000  Level FlightAware Transoceanic
Sun 01:03:00 AM 51.0960 -33.4124 91° East 552 635 41,000  Level FlightAware Transoceanic
Sun 01:04:00 AM 51.0925 -33.1683 91° East 552 635 41,000  Level FlightAware Transoceanic
Sun 01:05:00 AM 51.0884 -32.9242 92° East 552 635 41,000  Level FlightAware Transoceanic
Sun 01:06:00 AM 51.0838 -32.6801 92° East 552 635 41,000  Level FlightAware Transoceanic
Sun 01:07:00 AM 51.0788 -32.4361 92° East 552 635 41,000  Level FlightAware Transoceanic
Sun 01:08:00 AM 51.0732 -32.1922 92° East 552 635 41,000  Level FlightAware Transoceanic
Sun 01:09:00 AM 51.0671 -31.9483 92° East 552 635 41,000  Level FlightAware Transoceanic
Sun 01:10:00 AM 51.0604 -31.7045 93° East 552 635 41,000  Level FlightAware Transoceanic
Sun 01:11:00 AM 51.0533 -31.4607 93° East 552 635 41,000  Level FlightAware Transoceanic
Sun 01:12:00 AM 51.0457 -31.2170 93° East 552 635 41,000  Level FlightAware Transoceanic
Sun 01:13:00 AM 51.0376 -30.9734 93° East 552 635 41,000  Level FlightAware Transoceanic
Sun 01:14:00 AM 51.0289 -30.7299 93° East 552 635 41,000  Level FlightAware Transoceanic
Sun 01:15:00 AM 51.0198 -30.4865 94° East 552 635 41,000  Level FlightAware Transoceanic
Sun 01:16:00 AM 51.0102 -30.2432 94° East 552 635 41,000  Level FlightAware Transoceanic
Sun 01:17:00 AM 51.0006 -30.0152 94° East  Level FlightAware Approximate
Sun 01:18:00 AM 50.9907 -29.7873 94° East  Level FlightAware Approximate
Sun 01:19:00 AM 51.0072 -29.8023 87° East  Level FlightAware Approximate
Sun 01:19:00 AM 51.0000 -30.0000 86° East 539 620 41,000  Level ETMS Enhanced Traffic Management System
Sun 01:20:00 AM 51.0151 -29.5742 87° East  Level FlightAware Approximate
Sun 01:21:00 AM 51.0226 -29.3459 87° East  Level FlightAware Approximate
Sun 01:22:00 AM 51.0297 -29.1176 87° East  Level FlightAware Approximate
Sun 01:23:00 AM 51.0362 -28.8892 87° East  Level FlightAware Approximate
Sun 01:24:00 AM 51.0424 -28.6607 87° East  Level FlightAware Approximate
Sun 01:25:00 AM 51.0658 -28.0982 88° East 539 620 41,000  Level FlightAware Transoceanic
Sun 01:26:00 AM 51.0719 -27.8601 88° East 539 620 41,000  Level FlightAware Transoceanic
Sun 01:27:00 AM 51.0775 -27.6220 88° East 539 620 41,000  Level FlightAware Transoceanic
Sun 01:28:00 AM 51.0826 -27.3838 88° East 539 620 41,000  Level FlightAware Transoceanic
Sun 01:29:00 AM 51.0872 -27.1455 88° East 539 620 41,000  Level FlightAware Transoceanic
Sun 01:30:00 AM 51.0913 -26.9073 89° East 539 620 41,000  Level FlightAware Transoceanic
Sun 01:31:00 AM 51.0949 -26.6689 89° East 539 620 41,000  Level FlightAware Transoceanic
Sun 01:32:00 AM 51.0981 -26.4306 89° East 539 620 41,000  Level FlightAware Transoceanic
Sun 01:33:00 AM 51.1007 -26.1922 89° East 539 620 41,000  Level FlightAware Transoceanic
Sun 01:34:00 AM 51.1029 -25.9538 89° East 539 620 41,000  Level FlightAware Transoceanic
Sun 01:35:00 AM 51.1046 -25.7154 89° East 539 620 41,000  Level FlightAware Transoceanic
Sun 01:36:00 AM 51.1058 -25.4769 90° East 539 620 41,000  Level FlightAware Transoceanic
Sun 01:37:00 AM 51.1065 -25.2385 90° East 539 620 41,000  Level FlightAware Transoceanic
Sun 01:38:00 AM 51.1068 -25.0000 90° East 539 620 41,000  Level FlightAware Transoceanic
Sun 01:39:00 AM 51.1065 -24.7615 90° East 539 620 41,000  Level FlightAware Transoceanic
Sun 01:40:00 AM 51.1058 -24.5231 90° East 539 620 41,000  Level FlightAware Transoceanic
Sun 01:41:00 AM 51.1046 -24.2846 91° East 539 620 41,000  Level FlightAware Transoceanic
Sun 01:42:00 AM 51.1029 -24.0462 91° East 539 620 41,000  Level FlightAware Transoceanic
Sun 01:43:00 AM 51.1007 -23.8078 91° East 539 620 41,000  Level FlightAware Transoceanic
Sun 01:44:00 AM 51.0981 -23.5694 91° East 539 620 41,000  Level FlightAware Transoceanic
Sun 01:45:00 AM 51.0949 -23.3311 91° East 539 620 41,000  Level FlightAware Transoceanic
Sun 01:46:00 AM 51.0913 -23.0927 91° East 539 620 41,000  Level FlightAware Transoceanic
Sun 01:47:00 AM 51.0872 -22.8545 92° East 539 620 41,000  Level FlightAware Transoceanic
Sun 01:48:00 AM 51.0826 -22.6162 92° East 539 620 41,000  Level FlightAware Transoceanic
Sun 01:49:00 AM 51.0775 -22.3780 92° East 539 620 41,000  Level FlightAware Transoceanic
Sun 01:50:00 AM 51.0719 -22.1399 92° East 539 620 41,000  Level FlightAware Transoceanic
Sun 01:51:00 AM 51.0658 -21.9018 92° East 539 620 41,000  Level FlightAware Transoceanic
Sun 01:52:00 AM 51.0593 -21.6638 93° East 539 620 41,000  Level FlightAware Transoceanic
Sun 01:53:00 AM 51.0523 -21.4259 93° East 539 620 41,000  Level FlightAware Transoceanic
Sun 01:54:00 AM 51.0448 -21.1880 93° East 539 620 41,000  Level FlightAware Transoceanic
Sun 01:55:00 AM 51.0368 -20.9502 93° East 539 620 41,000  Level FlightAware Transoceanic
Sun 01:56:00 AM 51.0283 -20.7125 93° East 539 620 41,000  Level FlightAware Transoceanic
Sun 01:57:00 AM 51.0193 -20.4749 94° East 539 620 41,000  Level FlightAware Transoceanic
Sun 01:58:00 AM 51.0099 -20.2374 94° East 539 620 41,000  Level FlightAware Transoceanic
Sun 01:59:00 AM 51.0004 -20.0094 94° East  Level FlightAware Approximate
Sun 02:00:00 AM 50.9905 -19.7815 94° East  Level FlightAware Approximate
Sun 02:01:00 AM 50.9848 -19.7918 97° East  Level FlightAware Approximate
Sun 02:02:00 AM 50.9679 -19.5651 97° East  Level FlightAware Approximate
Sun 02:03:00 AM 50.9505 -19.3385 97° East  Level FlightAware Approximate
Sun 02:04:00 AM 50.9327 -19.1120 97° East  Level FlightAware Approximate
Sun 02:05:00 AM 50.9144 -18.8858 97° East  Level FlightAware Approximate
Sun 02:06:00 AM 50.8957 -18.6597 97° East  Level FlightAware Approximate
Sun 02:07:00 AM 50.8766 -18.4338 98° East  Level FlightAware Approximate
Sun 02:08:00 AM 50.8570 -18.2081 98° East  Level FlightAware Approximate
Sun 02:09:00 AM 50.8370 -17.9826 98° East  Level FlightAware Approximate
Sun 02:10:00 AM 50.8165 -17.7573 98° East  Level FlightAware Approximate
Sun 02:11:00 AM 50.7957 -17.5322 98° East  Level FlightAware Approximate
Sun 02:12:00 AM 50.7743 -17.3073 98° East  Level FlightAware Approximate
Sun 02:13:00 AM 50.7526 -17.0826 99° East  Level FlightAware Approximate
Sun 02:14:00 AM 50.7304 -16.8581 99° East  Level FlightAware Approximate
Sun 02:15:00 AM 50.7078 -16.6338 99° East  Level FlightAware Approximate
Sun 02:16:00 AM 50.6848 -16.4098 99° East  Level FlightAware Approximate
Sun 02:17:00 AM 50.6613 -16.1859 99° East  Level FlightAware Approximate
Sun 02:18:00 AM 50.6375 -15.9623 99° East  Level FlightAware Approximate
Sun 02:19:00 AM 50.6131 -15.7389 100° East  Level FlightAware Approximate
Sun 02:20:00 AM 50.5884 -15.5158 100° East  Level FlightAware Approximate
Sun 02:21:00 AM 50.5632 -15.2929 100° East  Level FlightAware Approximate
Sun 02:22:00 AM 50.5376 -15.0702 100° East  Level FlightAware Approximate
Sun 02:23:00 AM 50.5116 -14.8478 100° East  Level FlightAware Approximate
Sun 02:24:00 AM 50.4861 -14.6253 100° East  Level FlightAware Approximate
Sun 02:25:00 AM 50.4610 -14.4029 100° East  Level FlightAware Approximate
Sun 02:26:00 AM 50.4355 -14.1806 100° East  Level FlightAware Approximate
Sun 02:27:00 AM 50.4095 -13.9587 100° East  Level FlightAware Approximate
Sun 02:28:00 AM 50.3832 -13.7369 100° East  Level FlightAware Approximate
Sun 02:29:00 AM 50.3558 -13.5156 101° East  Level FlightAware Approximate
Sun 02:30:00 AM 50.3271 -13.2949 101° East  Level FlightAware Approximate
Sun 02:31:00 AM 50.2980 -13.0744 102° East  Level FlightAware Approximate
Sun 02:32:00 AM 50.2685 -12.8542 102° East  Level FlightAware Approximate
Sun 02:33:00 AM 50.2385 -12.6342 102° East  Level FlightAware Approximate
Sun 02:34:00 AM 50.2081 -12.4146 102° East  Level FlightAware Approximate
Sun 02:35:00 AM 50.1774 -12.1952 102° East  Level FlightAware Approximate
Sun 02:36:00 AM 50.1462 -11.9761 102° East  Level FlightAware Approximate
Sun 02:37:00 AM 50.1146 -11.7573 103° East  Level FlightAware Approximate
Sun 02:38:00 AM 50.0826 -11.5388 103° East  Level FlightAware Approximate
Sun 02:39:00 AM 50.0501 -11.3205 103° East  Level FlightAware Approximate
Sun 02:40:00 AM 50.0173 -11.1026 103° East  Level FlightAware Approximate
Sun 02:41:00 AM 49.9841 -10.8850 103° East  Level FlightAware Approximate
Sun 02:42:00 AM 49.9504 -10.6677 103° East  Level FlightAware Approximate
Sun 02:43:00 AM 49.9164 -10.4506 104° East  Level FlightAware Approximate
Sun 02:44:00 AM 49.8819 -10.2339 104° East  Level FlightAware Approximate
Sun 02:45:00 AM 49.8470 -10.0175 104° East  Level FlightAware Approximate
Sun 02:46:00 AM 49.8118 -9.8014 104° East  Level FlightAware Approximate
Sun 02:47:00 AM 49.7761 -9.5857 104° East  Level FlightAware Approximate
Sun 02:48:00 AM 49.7400 -9.3702 104° East  Level FlightAware Approximate
Sun 02:49:00 AM 49.7036 -9.1551 105° East  Level FlightAware Approximate
Sun 02:50:00 AM 49.6667 -8.9403 105° East  Level FlightAware Approximate
Sun 02:51:00 AM 49.6295 -8.7258 105° East  Level FlightAware Approximate
Sun 02:52:00 AM 49.5918 -8.5116 105° East  Level FlightAware Approximate
Sun 02:53:00 AM 49.5537 -8.2978 105° East  Level FlightAware Approximate
Sun 02:54:00 AM 49.5153 -8.0843 105° East  Level FlightAware Approximate
Sun 02:55:00 AM 49.4753 -7.8717 106° East  Level FlightAware Approximate
Sun 02:56:00 AM 49.4342 -7.6598 107° East  Level FlightAware Approximate
Sun 02:57:00 AM 49.3927 -7.4482 107° East  Level FlightAware Approximate
Sun 02:58:00 AM 49.3507 -7.2370 107° East  Level FlightAware Approximate
Sun 02:59:00 AM 49.3086 -7.0260 107° East  Level FlightAware Approximate
Sun 03:00:00 AM 49.2663 -6.8154 107° East  Level FlightAware Approximate
Sun 03:01:00 AM 49.2236 -6.6050 107° East  Level FlightAware Approximate
Sun 03:02:00 AM 49.1805 -6.3951 107° East  Level FlightAware Approximate
Sun 03:03:00 AM 49.1371 -6.1855 108° East  Level FlightAware Approximate
Sun 03:04:00 AM 49.0932 -5.9763 108° East  Level FlightAware Approximate
Sun 03:05:00 AM 49.0490 -5.7675 108° East  Level FlightAware Approximate
Sun 03:06:00 AM 49.0044 -5.5590 108° East  Level FlightAware Approximate
Sun 03:07:00 AM 48.9595 -5.3509 108° East  Level FlightAware Approximate
Sun 03:08:00 AM 48.9141 -5.1432 108° East  Level FlightAware Approximate
Sun 03:09:00 AM 48.8684 -4.9359 108° East  Level FlightAware Approximate
Sun 03:10:00 AM 48.8223 -4.7289 109° East  Level FlightAware Approximate
Sun 03:11:00 AM 48.7758 -4.5223 109° East  Level FlightAware Approximate
Sun 03:12:00 AM 48.7290 -4.3161 109° East  Level FlightAware Approximate
Sun 03:13:00 AM 48.6818 -4.1103 109° East  Level FlightAware Approximate
Sun 03:14:00 AM 48.6343 -3.9049 109° East  Level FlightAware Approximate
Sun 03:15:00 AM 48.5864 -3.6999 109° East  Level FlightAware Approximate
Sun 03:16:00 AM 48.5381 -3.4952 110° East  Level FlightAware Approximate
Sun 03:17:00 AM 48.4894 -3.2910 110° East  Level FlightAware Approximate
Sun 03:18:00 AM 48.4404 -3.0871 110° East  Level FlightAware Approximate
Sun 03:19:00 AM 48.3910 -2.8837 110° East  Level FlightAware Approximate
Sun 03:20:00 AM 48.3413 -2.6806 110° East  Level FlightAware Approximate
Sun 03:21:00 AM 48.2912 -2.4779 110° East  Level FlightAware Approximate
Sun 03:22:00 AM 48.2408 -2.2757 110° East  Level FlightAware Approximate
Sun 03:23:00 AM 48.1900 -2.0738 111° Southeast  Level FlightAware Approximate
Sun 03:24:00 AM 48.1389 -1.8723 111° Southeast  Level FlightAware Approximate
Sun 03:25:00 AM 48.0874 -1.6712 111° Southeast  Level FlightAware Approximate
Sun 03:26:00 AM 48.0355 -1.4706 111° Southeast  Level FlightAware Approximate
Sun 03:27:00 AM 47.9833 -1.2703 111° Southeast  Level FlightAware Approximate
Sun 03:28:00 AM 47.9308 -1.0705 111° Southeast  Level FlightAware Approximate
Sun 03:29:00 AM 47.8779 -0.8710 112° Southeast  Level FlightAware Approximate
Sun 03:30:00 AM 47.8247 -0.6720 112° Southeast  Level FlightAware Approximate
Sun 03:31:00 AM 47.7711 -0.4734 112° Southeast  Level FlightAware Approximate
Sun 03:32:00 AM 47.7172 -0.2751 112° Southeast  Level FlightAware Approximate
Sun 03:33:00 AM 47.6629 -0.0773 112° Southeast  Level FlightAware Approximate
Sun 03:34:00 AM 47.6083 0.1201 112° Southeast  Level FlightAware Approximate
Sun 03:35:00 AM 47.5534 0.3170 112° Southeast  Level FlightAware Approximate
Sun 03:36:00 AM 47.4981 0.5136 113° Southeast  Level FlightAware Approximate
Sun 03:37:00 AM 47.4425 0.7098 113° Southeast  Level FlightAware Approximate
Sun 03:38:00 AM 47.3865 0.9055 113° Southeast  Level FlightAware Approximate
Sun 03:39:00 AM 47.3303 1.1008 113° Southeast  Level FlightAware Approximate
Sun 03:40:00 AM 47.2737 1.2957 113° Southeast  Level FlightAware Approximate
Sun 03:41:00 AM 47.2167 1.4902 113° Southeast  Level FlightAware Approximate
Sun 03:42:00 AM 47.1595 1.6843 113° Southeast  Level FlightAware Approximate
Sun 03:43:00 AM 47.1019 1.8779 114° Southeast  Level FlightAware Approximate
Sun 03:44:00 AM 47.0440 2.0712 114° Southeast  Level FlightAware Approximate
Sun 03:45:00 AM 46.9857 2.2640 114° Southeast  Level FlightAware Approximate
Sun 03:46:00 AM 46.9272 2.4564 114° Southeast  Level FlightAware Approximate
Sun 03:47:00 AM 46.8683 2.6483 114° Southeast  Level FlightAware Approximate
Sun 03:48:00 AM 46.8091 2.8399 114° Southeast  Level FlightAware Approximate
Sun 03:49:00 AM 46.7495 3.0310 114° Southeast  Level FlightAware Approximate
Sun 03:50:00 AM 46.6897 3.2217 115° Southeast  Level FlightAware Approximate
Sun 03:51:00 AM 46.6295 3.4120 115° Southeast  Level FlightAware Approximate
Sun 03:52:00 AM 46.5691 3.6018 115° Southeast  Level FlightAware Approximate
Sun 03:53:00 AM 46.5083 3.7913 115° Southeast  Level FlightAware Approximate
Sun 03:54:00 AM 46.4472 3.9803 115° Southeast  Level FlightAware Approximate
Sun 03:55:00 AM 46.3858 4.1688 115° Southeast  Level FlightAware Approximate
Sun 03:56:00 AM 46.3241 4.3570 115° Southeast  Level FlightAware Approximate
Sun 03:57:00 AM 46.2620 4.5447 115° Southeast  Level FlightAware Approximate
Sun 03:58:00 AM 46.1997 4.7320 116° Southeast  Level FlightAware Approximate
Sun 03:59:00 AM 46.1371 4.9189 116° Southeast  Level FlightAware Approximate
Sun 04:00:00 AM 46.0741 5.1054 116° Southeast  Level FlightAware Approximate
Sun 04:01:00 AM 46.0109 5.2914 116° Southeast  Level FlightAware Approximate
Sun 04:02:00 AM 45.9473 5.4770 116° Southeast  Level FlightAware Approximate
Sun 04:03:00 AM 45.8835 5.6622 116° Southeast  Level FlightAware Approximate
Sun 04:04:00 AM 45.8194 5.8469 116° Southeast  Level FlightAware Approximate
Sun 04:05:00 AM 45.7549 6.0313 117° Southeast  Level FlightAware Approximate
Sun 04:06:00 AM 45.6902 6.2152 117° Southeast  Level FlightAware Approximate
Sun 04:07:00 AM 45.6251 6.3986 117° Southeast  Level FlightAware Approximate
Sun 04:08:00 AM 45.5598 6.5817 117° Southeast  Level FlightAware Approximate
Sun 04:09:00 AM 45.4942 6.7643 117° Southeast  Level FlightAware Approximate
Sun 04:10:00 AM 45.4283 6.9465 117° Southeast  Level FlightAware Approximate
Sun 04:11:00 AM 45.3621 7.1283 117° Southeast  Level FlightAware Approximate
Sun 04:12:00 AM 45.2956 7.3096 117° Southeast  Level FlightAware Approximate
Sun 04:13:00 AM 45.2288 7.4905 118° Southeast  Level FlightAware Approximate
Sun 04:14:00 AM 45.1616 7.6709 118° Southeast  Level FlightAware Approximate
Sun 04:15:00 AM 45.0942 7.8508 118° Southeast  Level FlightAware Approximate
Sun 04:16:00 AM 45.0264 8.0304 118° Southeast  Level FlightAware Approximate
Sun 04:17:00 AM 44.9584 8.2095 118° Southeast  Level FlightAware Approximate
Sun 04:18:00 AM 44.8901 8.3882 118° Southeast  Level FlightAware Approximate
Sun 04:19:00 AM 44.8215 8.5665 118° Southeast  Level FlightAware Approximate
Sun 04:20:00 AM 44.7527 8.7443 119° Southeast  Level FlightAware Approximate
Sun 04:21:00 AM 44.6836 8.9217 119° Southeast  Level FlightAware Approximate
Sun 04:22:00 AM 44.6141 9.0987 119° Southeast  Level FlightAware Approximate
Sun 04:23:00 AM 44.5445 9.2753 119° Southeast  Level FlightAware Approximate
Sun 04:24:00 AM 44.4745 9.4515 119° Southeast  Level FlightAware Approximate
Sun 04:25:00 AM 44.4043 9.6272 119° Southeast  Level FlightAware Approximate
Sun 04:26:00 AM 44.3338 9.8025 119° Southeast  Level FlightAware Approximate
Sun 04:27:00 AM 44.2630 9.9774 119° Southeast  Level FlightAware Approximate
Sun 04:28:00 AM 44.1920 10.1519 120° Southeast  Level FlightAware Approximate
Sun 04:29:00 AM 44.1207 10.3259 120° Southeast  Level FlightAware Approximate
Sun 04:30:00 AM 44.0492 10.4995 120° Southeast  Level FlightAware Approximate
Sun 04:31:00 AM 43.9774 10.6727 120° Southeast  Level FlightAware Approximate
Sun 04:32:00 AM 43.9053 10.8455 120° Southeast  Level FlightAware Approximate
Sun 04:33:00 AM 43.8330 11.0179 120° Southeast  Level FlightAware Approximate
Sun 04:34:00 AM 43.7604 11.1898 120° Southeast  Level FlightAware Approximate
Sun 04:35:00 AM 43.6875 11.3614 120° Southeast  Level FlightAware Approximate
Sun 04:36:00 AM 43.6144 11.5325 121° Southeast  Level FlightAware Approximate
Sun 04:37:00 AM 43.5411 11.7032 121° Southeast  Level FlightAware Approximate
Sun 04:38:00 AM 43.4674 11.8735 121° Southeast  Level FlightAware Approximate
Sun 04:39:00 AM 43.3936 12.0433 121° Southeast  Level FlightAware Approximate
Sun 04:40:00 AM 43.3195 12.2128 121° Southeast  Level FlightAware Approximate
Sun 04:41:00 AM 43.2451 12.3818 121° Southeast  Level FlightAware Approximate
Sun 04:42:00 AM 43.1705 12.5504 121° Southeast  Level FlightAware Approximate
Sun 04:43:00 AM 43.0956 12.7186 121° Southeast  Level FlightAware Approximate
Sun 04:44:00 AM 43.0205 12.8864 121° Southeast  Level FlightAware Approximate
Sun 04:45:00 AM 42.9452 13.0538 122° Southeast  Level FlightAware Approximate
Sun 04:46:00 AM 42.8696 13.2208 122° Southeast  Level FlightAware Approximate
Sun 04:47:00 AM 42.7937 13.3874 122° Southeast  Level FlightAware Approximate
Sun 04:48:00 AM 42.7177 13.5536 122° Southeast  Level FlightAware Approximate
Sun 04:49:00 AM 42.6413 13.7193 122° Southeast  Level FlightAware Approximate
Sun 04:50:00 AM 42.5648 13.8847 122° Southeast  Level FlightAware Approximate
Sun 04:51:00 AM 42.4880 14.0496 122° Southeast  Level FlightAware Approximate
Sun 04:52:00 AM 42.4110 14.2142 122° Southeast  Level FlightAware Approximate
Sun 04:53:00 AM 42.3337 14.3783 122° Southeast  Level FlightAware Approximate
Sun 04:54:00 AM 42.2562 14.5420 123° Southeast  Level FlightAware Approximate
Sun 04:55:00 AM 42.1785 14.7053 123° Southeast  Level FlightAware Approximate
Sun 04:56:00 AM 42.1005 14.8683 123° Southeast  Level FlightAware Approximate
Sun 04:57:00 AM 42.0223 15.0308 123° Southeast  Level FlightAware Approximate
Sun 04:58:00 AM 41.9439 15.1929 123° Southeast  Level FlightAware Approximate
Sun 04:59:00 AM 41.8654 15.3547 123° Southeast  Level FlightAware Approximate
Sun 05:00:00 AM 41.7868 15.5163 123° Southeast  Level FlightAware Approximate
Sun 05:01:00 AM 41.7079 15.6775 123° Southeast  Level FlightAware Approximate
Sun 05:02:00 AM 41.6288 15.8382 123° Southeast  Level FlightAware Approximate
Sun 05:03:00 AM 41.5495 15.9986 123° Southeast  Level FlightAware Approximate
Sun 05:04:00 AM 41.4700 16.1585 124° Southeast  Level FlightAware Approximate
Sun 05:05:00 AM 41.3903 16.3181 124° Southeast  Level FlightAware Approximate
Sun 05:06:00 AM 41.3103 16.4773 124° Southeast  Level FlightAware Approximate
Sun 05:07:00 AM 41.2301 16.6361 124° Southeast  Level FlightAware Approximate
Sun 05:08:00 AM 41.1497 16.7945 124° Southeast  Level FlightAware Approximate
Sun 05:09:00 AM 41.0691 16.9525 124° Southeast  Level FlightAware Approximate
Sun 05:10:00 AM 40.9883 17.1101 124° Southeast  Level FlightAware Approximate
Sun 05:11:00 AM 40.9072 17.2674 124° Southeast  Level FlightAware Approximate
Sun 05:12:00 AM 40.8260 17.4242 124° Southeast  Level FlightAware Approximate
Sun 05:13:00 AM 40.7445 17.5807 124° Southeast  Level FlightAware Approximate
Sun 05:14:00 AM 40.6628 17.7368 125° Southeast  Level FlightAware Approximate
Sun 05:15:00 AM 40.5809 17.8925 125° Southeast  Level FlightAware Approximate
Sun 05:16:00 AM 40.4988 18.0478 125° Southeast  Level FlightAware Approximate
Sun 05:17:00 AM 40.4165 18.2028 125° Southeast  Level FlightAware Approximate
Sun 05:18:00 AM 40.3340 18.3573 125° Southeast  Level FlightAware Approximate
Sun 05:19:00 AM 40.2513 18.5115 125° Southeast  Level FlightAware Approximate
Sun 05:20:00 AM 40.1684 18.6653 125° Southeast  Level FlightAware Approximate
Sun 05:21:00 AM 40.0853 18.8188 125° Southeast  Level FlightAware Approximate
Sun 05:22:00 AM 40.0019 18.9718 125° Southeast  Level FlightAware Approximate
Sun 05:23:00 AM 39.9184 19.1245 125° Southeast  Level FlightAware Approximate
Sun 05:24:00 AM 39.8347 19.2768 126° Southeast  Level FlightAware Approximate
Sun 05:25:00 AM 39.7507 19.4287 126° Southeast  Level FlightAware Approximate
Sun 05:26:00 AM 39.6665 19.5802 126° Southeast  Level FlightAware Approximate
Sun 05:27:00 AM 39.5821 19.7313 126° Southeast  Level FlightAware Approximate
Sun 05:28:00 AM 39.4975 19.8821 126° Southeast  Level FlightAware Approximate
Sun 05:29:00 AM 39.4127 20.0324 126° Southeast  Level FlightAware Approximate
Sun 05:30:00 AM 39.3277 20.1825 126° Southeast  Level FlightAware Approximate
Sun 05:31:00 AM 39.2425 20.3321 126° Southeast  Level FlightAware Approximate
Sun 05:32:00 AM 39.1571 20.4814 126° Southeast  Level FlightAware Approximate
Sun 05:33:00 AM 39.0715 20.6303 126° Southeast  Level FlightAware Approximate
Sun 05:34:00 AM 38.9858 20.7789 127° Southeast  Level FlightAware Approximate
Sun 05:35:00 AM 38.8998 20.9271 127° Southeast  Level FlightAware Approximate
Sun 05:36:00 AM 38.8137 21.0749 127° Southeast  Level FlightAware Approximate
Sun 05:37:00 AM 38.7273 21.2224 127° Southeast  Level FlightAware Approximate
Sun 05:38:00 AM 38.6408 21.3695 127° Southeast  Level FlightAware Approximate
Sun 05:39:00 AM 38.5541 21.5163 127° Southeast  Level FlightAware Approximate
Sun 05:40:00 AM 38.4673 21.6627 127° Southeast  Level FlightAware Approximate
Sun 05:41:00 AM 38.3802 21.8087 127° Southeast  Level FlightAware Approximate
Sun 05:42:00 AM 38.2930 21.9545 127° Southeast  Level FlightAware Approximate
Sun 05:43:00 AM 38.2056 22.0998 127° Southeast  Level FlightAware Approximate
Sun 05:44:00 AM 38.1180 22.2448 127° Southeast  Level FlightAware Approximate
Sun 05:45:00 AM 38.0302 22.3895 128° Southeast  Level FlightAware Approximate
Sun 05:46:00 AM 37.9422 22.5338 128° Southeast  Level FlightAware Approximate
Sun 05:47:00 AM 37.8541 22.6778 128° Southeast  Level FlightAware Approximate
Sun 05:48:00 AM 37.7658 22.8214 128° Southeast  Level FlightAware Approximate
Sun 05:49:00 AM 37.6773 22.9647 128° Southeast  Level FlightAware Approximate
Sun 05:50:00 AM 37.5887 23.1076 128° Southeast  Level FlightAware Approximate
Sun 05:51:00 AM 37.4998 23.2502 130° Southeast  Level FlightAware Approximate
Sun 05:52:00 AM 37.4145 23.3958 124° Southeast  Level FlightAware Approximate
Sun 05:53:00 AM 37.3285 23.5406 130° Southeast  Level FlightAware Approximate
Sun 05:54:00 AM 37.2380 23.6809 129° Southeast  Level FlightAware Approximate
Sun 05:55:00 AM 37.1471 23.8208 131° Southeast  Level FlightAware Approximate
Sun 05:56:00 AM 37.0530 23.9570 131° Southeast  Level FlightAware Approximate
Sun 05:57:00 AM 36.9617 24.0960 127° Southeast  Level FlightAware Approximate
Sun 05:58:00 AM 36.8741 24.2386 127° Southeast  Level FlightAware Approximate
Sun 05:59:00 AM 36.7864 24.3810 128° Southeast  Level FlightAware Approximate
Sun 06:00:00 AM 36.7757 24.5143 42° Northeast  Level FlightAware Approximate
Sun 06:01:00 AM 36.8816 24.6358 46° Northeast  Level FlightAware Approximate
Sun 06:02:00 AM 36.9818 24.7647 46° Northeast  Level FlightAware Approximate
Sun 06:03:00 AM 37.0804 24.8959 47° Northeast  Level FlightAware Approximate
Sun 06:04:00 AM 37.1797 25.0262 46° Northeast  Level FlightAware Approximate
Sun 06:05:00 AM 37.2838 25.1504 38° Northeast  Level FlightAware Approximate
Sun 06:06:00 AM 37.3813 25.2813 38° Northeast  Level FlightAware Approximate
Sun 06:07:00 AM 37.4333 25.3333 38° Northeast  Level FlightAware Approximate
Sun 06:08:00 AM 37.4351 25.3481 38° Northeast  Level Estimated
Sun 06:09:00 AM 37.4351 25.3481 38° Northeast  Level Estimated
Sun 06:10:00 AM 37.4351 25.3481 38° Northeast  Level Estimated
Sun 06:11:00 AM 37.4351 25.3481 38° Northeast  Level Estimated
Sun 06:12:00 AM 37.4351 25.3481 38° Northeast  Level Estimated
Sun 06:13:00 AM 37.4351 25.3481 38° Northeast  Level Estimated
Sun 06:14:00 AM 37.4351 25.3481 38° Northeast  Level Estimated
Sun 06:15:00 AM 37.4351 25.3481 38° Northeast  Level Estimated
Sun 06:16:00 AM 37.4351 25.3481 38° Northeast  Level Estimated
Sun 06:17:00 AM 37.4351 25.3481 38° Northeast  Level Estimated
Sun 06:18:00 AM 37.4351 25.3481 38° Northeast  Level Estimated
Sun 06:19:00 AM 37.4351 25.3481 38° Northeast  Level Estimated
Sun 06:20:00 AM 37.4351 25.3481 38° Northeast  Level Estimated
Sun 06:21:00 AM 37.4351 25.3481 38° Northeast  Level Estimated
Sun 06:22:00 AM 37.4351 25.3481 38° Northeast  Level Estimated
Sun 06:23:00 AM 37.4351 25.3481 38° Northeast  Level Estimated
Sun 06:24:00 AM 37.4351 25.3481 38° Northeast  Level Estimated
Sun 06:25:00 AM 37.4351 25.3481 38° Northeast  Level Estimated
Sun 06:26:00 AM 37.4351 25.3481 38° Northeast  Level Estimated
Sun 06:27:00 AM 37.4351 25.3481 38° Northeast  Level Estimated
Sun 06:28:00 AM 37.4351 25.3481 38° Northeast  Level Estimated

Login

Don't have an account? Register now (free) for customized features, flight alerts, and more!